sensor_id;sensor_type;location;lat;lon;timestamp;P1;durP1;ratioP1;P2;durP2;ratioP2
63320;SDS011;49449;48.800;9.534;2023-04-10T00:00:48;10.70;;;8.48;;
63320;SDS011;49449;48.800;9.534;2023-04-10T00:03:22;9.57;;;8.50;;
63320;SDS011;49449;48.800;9.534;2023-04-10T00:05:50;9.77;;;8.20;;
63320;SDS011;49449;48.800;9.534;2023-04-10T00:08:19;9.77;;;8.68;;
63320;SDS011;49449;48.800;9.534;2023-04-10T00:10:49;9.93;;;8.43;;
63320;SDS011;49449;48.800;9.534;2023-04-10T00:13:18;8.55;;;7.05;;
63320;SDS011;49449;48.800;9.534;2023-04-10T00:15:46;9.82;;;8.13;;
63320;SDS011;49449;48.800;9.534;2023-04-10T00:18:14;8.95;;;8.00;;
63320;SDS011;49449;48.800;9.534;2023-04-10T00:20:42;10.43;;;8.73;;
63320;SDS011;49449;48.800;9.534;2023-04-10T00:23:10;10.60;;;8.73;;
63320;SDS011;49449;48.800;9.534;2023-04-10T00:25:38;9.68;;;8.27;;
63320;SDS011;49449;48.800;9.534;2023-04-10T00:28:07;8.57;;;7.05;;
63320;SDS011;49449;48.800;9.534;2023-04-10T00:30:34;10.32;;;8.20;;
63320;SDS011;49449;48.800;9.534;2023-04-10T00:33:02;8.98;;;7.53;;
63320;SDS011;49449;48.800;9.534;2023-04-10T00:35:31;9.57;;;6.90;;
63320;SDS011;49449;48.800;9.534;2023-04-10T00:37:59;10.18;;;8.10;;
63320;SDS011;49449;48.800;9.534;2023-04-10T00:40:27;10.80;;;8.35;;
63320;SDS011;49449;48.800;9.534;2023-04-10T00:42:55;8.52;;;6.97;;
63320;SDS011;49449;48.800;9.534;2023-04-10T00:45:25;9.18;;;7.13;;
63320;SDS011;49449;48.800;9.534;2023-04-10T00:47:53;10.02;;;7.82;;
63320;SDS011;49449;48.800;9.534;2023-04-10T00:50:21;8.30;;;7.40;;
63320;SDS011;49449;48.800;9.534;2023-04-10T00:52:50;9.13;;;8.15;;
63320;SDS011;49449;48.800;9.534;2023-04-10T00:55:17;10.48;;;8.70;;
63320;SDS011;49449;48.800;9.534;2023-04-10T00:57:45;9.65;;;8.48;;
63320;SDS011;49449;48.800;9.534;2023-04-10T01:00:14;9.40;;;7.43;;
63320;SDS011;49449;48.800;9.534;2023-04-10T01:02:44;9.07;;;7.88;;
63320;SDS011;49449;48.800;9.534;2023-04-10T01:05:12;8.98;;;7.38;;
63320;SDS011;49449;48.800;9.534;2023-04-10T01:07:44;9.45;;;7.93;;
63320;SDS011;49449;48.800;9.534;2023-04-10T01:10:23;9.00;;;6.95;;
63320;SDS011;49449;48.800;9.534;2023-04-10T01:12:57;9.00;;;7.47;;
63320;SDS011;49449;48.800;9.534;2023-04-10T01:15:35;10.15;;;8.45;;
63320;SDS011;49449;48.800;9.534;2023-04-10T01:18:12;9.40;;;7.82;;
63320;SDS011;49449;48.800;9.534;2023-04-10T01:20:45;9.23;;;8.20;;
63320;SDS011;49449;48.800;9.534;2023-04-10T01:26:13;10.93;;;8.10;;
63320;SDS011;49449;48.800;9.534;2023-04-10T01:28:50;9.93;;;7.28;;
63320;SDS011;49449;48.800;9.534;2023-04-10T01:31:20;9.32;;;8.00;;
63320;SDS011;49449;48.800;9.534;2023-04-10T01:33:56;10.40;;;8.50;;
63320;SDS011;49449;48.800;9.534;2023-04-10T01:36:30;8.80;;;7.65;;
63320;SDS011;49449;48.800;9.534;2023-04-10T01:39:03;8.90;;;7.53;;
63320;SDS011;49449;48.800;9.534;2023-04-10T01:41:33;11.07;;;9.13;;
63320;SDS011;49449;48.800;9.534;2023-04-10T01:44:03;9.88;;;8.52;;
63320;SDS011;49449;48.800;9.534;2023-04-10T01:46:33;8.77;;;7.45;;
63320;SDS011;49449;48.800;9.534;2023-04-10T01:49:03;10.38;;;8.07;;
63320;SDS011;49449;48.800;9.534;2023-04-10T01:51:32;9.27;;;7.18;;
63320;SDS011;49449;48.800;9.534;2023-04-10T01:54:01;9.23;;;7.93;;
63320;SDS011;49449;48.800;9.534;2023-04-10T01:56:31;8.55;;;7.15;;
63320;SDS011;49449;48.800;9.534;2023-04-10T01:59:00;9.45;;;7.60;;
63320;SDS011;49449;48.800;9.534;2023-04-10T02:01:30;9.52;;;7.90;;
63320;SDS011;49449;48.800;9.534;2023-04-10T02:03:58;8.57;;;6.47;;
63320;SDS011;49449;48.800;9.534;2023-04-10T02:06:28;7.93;;;6.60;;
63320;SDS011;49449;48.800;9.534;2023-04-10T02:09:09;8.90;;;7.35;;
63320;SDS011;49449;48.800;9.534;2023-04-10T02:11:53;7.60;;;6.70;;
63320;SDS011;49449;48.800;9.534;2023-04-10T02:14:25;8.20;;;6.78;;
63320;SDS011;49449;48.800;9.534;2023-04-10T02:16:57;7.82;;;6.43;;
63320;SDS011;49449;48.800;9.534;2023-04-10T02:19:27;8.50;;;7.13;;
63320;SDS011;49449;48.800;9.534;2023-04-10T02:21:58;9.98;;;7.60;;
63320;SDS011;49449;48.800;9.534;2023-04-10T02:24:26;9.45;;;7.47;;
63320;SDS011;49449;48.800;9.534;2023-04-10T02:26:55;8.90;;;6.85;;
63320;SDS011;49449;48.800;9.534;2023-04-10T02:29:23;10.52;;;7.93;;
63320;SDS011;49449;48.800;9.534;2023-04-10T02:31:51;9.27;;;7.78;;
63320;SDS011;49449;48.800;9.534;2023-04-10T02:34:20;9.85;;;7.32;;
63320;SDS011;49449;48.800;9.534;2023-04-10T02:36:48;10.48;;;7.95;;
63320;SDS011;49449;48.800;9.534;2023-04-10T02:39:16;8.75;;;7.45;;
63320;SDS011;49449;48.800;9.534;2023-04-10T02:41:44;9.48;;;8.15;;
63320;SDS011;49449;48.800;9.534;2023-04-10T02:44:11;9.70;;;7.50;;
63320;SDS011;49449;48.800;9.534;2023-04-10T02:46:39;8.85;;;7.63;;
63320;SDS011;49449;48.800;9.534;2023-04-10T02:49:07;9.50;;;7.20;;
63320;SDS011;49449;48.800;9.534;2023-04-10T02:51:36;7.90;;;6.90;;
63320;SDS011;49449;48.800;9.534;2023-04-10T02:54:04;9.15;;;7.22;;
63320;SDS011;49449;48.800;9.534;2023-04-10T02:56:32;9.57;;;7.75;;
63320;SDS011;49449;48.800;9.534;2023-04-10T02:59:00;8.63;;;7.50;;
63320;SDS011;49449;48.800;9.534;2023-04-10T03:01:28;8.50;;;6.57;;
63320;SDS011;49449;48.800;9.534;2023-04-10T03:03:57;8.38;;;7.00;;
63320;SDS011;49449;48.800;9.534;2023-04-10T03:06:25;7.95;;;6.88;;
63320;SDS011;49449;48.800;9.534;2023-04-10T03:08:54;10.27;;;7.82;;
63320;SDS011;49449;48.800;9.534;2023-04-10T03:11:22;9.90;;;7.65;;
63320;SDS011;49449;48.800;9.534;2023-04-10T03:13:50;9.68;;;8.68;;
63320;SDS011;49449;48.800;9.534;2023-04-10T03:16:18;9.52;;;7.55;;
63320;SDS011;49449;48.800;9.534;2023-04-10T03:18:45;9.88;;;8.43;;
63320;SDS011;49449;48.800;9.534;2023-04-10T03:21:13;10.00;;;8.68;;
63320;SDS011;49449;48.800;9.534;2023-04-10T03:23:41;9.48;;;7.90;;
63320;SDS011;49449;48.800;9.534;2023-04-10T03:26:10;10.75;;;7.60;;
63320;SDS011;49449;48.800;9.534;2023-04-10T03:28:38;8.18;;;7.10;;
63320;SDS011;49449;48.800;9.534;2023-04-10T03:31:06;9.75;;;7.35;;
63320;SDS011;49449;48.800;9.534;2023-04-10T03:33:35;8.55;;;7.10;;
63320;SDS011;49449;48.800;9.534;2023-04-10T03:36:03;8.00;;;6.70;;
63320;SDS011;49449;48.800;9.534;2023-04-10T03:38:31;9.35;;;7.35;;
63320;SDS011;49449;48.800;9.534;2023-04-10T03:40:59;9.93;;;7.70;;
63320;SDS011;49449;48.800;9.534;2023-04-10T03:43:29;10.68;;;7.97;;
63320;SDS011;49449;48.800;9.534;2023-04-10T03:45:57;8.60;;;7.18;;
63320;SDS011;49449;48.800;9.534;2023-04-10T03:48:25;9.23;;;8.07;;
63320;SDS011;49449;48.800;9.534;2023-04-10T03:50:55;8.15;;;6.50;;
63320;SDS011;49449;48.800;9.534;2023-04-10T03:53:23;10.23;;;8.35;;
63320;SDS011;49449;48.800;9.534;2023-04-10T03:55:51;9.88;;;7.50;;
63320;SDS011;49449;48.800;9.534;2023-04-10T03:58:19;10.38;;;8.35;;
63320;SDS011;49449;48.800;9.534;2023-04-10T04:00:48;9.25;;;7.90;;
63320;SDS011;49449;48.800;9.534;2023-04-10T04:03:16;10.32;;;8.15;;
63320;SDS011;49449;48.800;9.534;2023-04-10T04:05:44;10.40;;;6.95;;
63320;SDS011;49449;48.800;9.534;2023-04-10T04:08:11;9.10;;;7.88;;
63320;SDS011;49449;48.800;9.534;2023-04-10T04:10:39;7.75;;;6.88;;
63320;SDS011;49449;48.800;9.534;2023-04-10T04:13:07;7.88;;;6.90;;
63320;SDS011;49449;48.800;9.534;2023-04-10T04:15:35;8.43;;;6.57;;
63320;SDS011;49449;48.800;9.534;2023-04-10T04:18:04;8.10;;;6.93;;
63320;SDS011;49449;48.800;9.534;2023-04-10T04:20:31;8.15;;;7.05;;
63320;SDS011;49449;48.800;9.534;2023-04-10T04:22:59;7.70;;;6.60;;
63320;SDS011;49449;48.800;9.534;2023-04-10T04:25:27;9.00;;;7.53;;
63320;SDS011;49449;48.800;9.534;2023-04-10T04:27:55;7.85;;;6.30;;
63320;SDS011;49449;48.800;9.534;2023-04-10T04:30:22;8.48;;;6.80;;
63320;SDS011;49449;48.800;9.534;2023-04-10T04:32:50;7.97;;;6.72;;
63320;SDS011;49449;48.800;9.534;2023-04-10T04:35:19;8.88;;;6.18;;
63320;SDS011;49449;48.800;9.534;2023-04-10T04:37:47;8.88;;;7.15;;
63320;SDS011;49449;48.800;9.534;2023-04-10T04:40:15;10.73;;;7.30;;
63320;SDS011;49449;48.800;9.534;2023-04-10T04:42:43;9.55;;;7.60;;
63320;SDS011;49449;48.800;9.534;2023-04-10T04:45:11;9.57;;;7.80;;
63320;SDS011;49449;48.800;9.534;2023-04-10T04:47:39;9.23;;;7.93;;
63320;SDS011;49449;48.800;9.534;2023-04-10T04:50:07;9.55;;;7.38;;
63320;SDS011;49449;48.800;9.534;2023-04-10T04:52:37;9.52;;;7.93;;
63320;SDS011;49449;48.800;9.534;2023-04-10T04:55:05;9.57;;;7.45;;
63320;SDS011;49449;48.800;9.534;2023-04-10T04:57:33;10.73;;;8.00;;
63320;SDS011;49449;48.800;9.534;2023-04-10T05:00:01;10.27;;;7.32;;
63320;SDS011;49449;48.800;9.534;2023-04-10T05:02:29;8.48;;;7.53;;
63320;SDS011;49449;48.800;9.534;2023-04-10T05:04:57;10.38;;;8.13;;
63320;SDS011;49449;48.800;9.534;2023-04-10T05:07:25;8.30;;;7.45;;
63320;SDS011;49449;48.800;9.534;2023-04-10T05:09:54;8.15;;;7.13;;
63320;SDS011;49449;48.800;9.534;2023-04-10T05:12:21;8.13;;;6.85;;
63320;SDS011;49449;48.800;9.534;2023-04-10T05:14:49;7.60;;;6.70;;
63320;SDS011;49449;48.800;9.534;2023-04-10T05:17:17;7.63;;;6.70;;
63320;SDS011;49449;48.800;9.534;2023-04-10T05:19:45;8.73;;;7.03;;
63320;SDS011;49449;48.800;9.534;2023-04-10T05:22:12;7.95;;;6.78;;
63320;SDS011;49449;48.800;9.534;2023-04-10T05:24:41;8.13;;;6.28;;
63320;SDS011;49449;48.800;9.534;2023-04-10T05:27:11;8.43;;;7.15;;
63320;SDS011;49449;48.800;9.534;2023-04-10T05:29:39;8.75;;;6.90;;
63320;SDS011;49449;48.800;9.534;2023-04-10T05:32:06;7.57;;;6.55;;
63320;SDS011;49449;48.800;9.534;2023-04-10T05:34:34;9.20;;;6.03;;
63320;SDS011;49449;48.800;9.534;2023-04-10T05:37:02;7.35;;;6.63;;
63320;SDS011;49449;48.800;9.534;2023-04-10T05:39:30;11.25;;;8.48;;
63320;SDS011;49449;48.800;9.534;2023-04-10T05:41:58;8.95;;;7.78;;
63320;SDS011;49449;48.800;9.534;2023-04-10T05:44:28;9.30;;;7.57;;
63320;SDS011;49449;48.800;9.534;2023-04-10T05:46:56;8.70;;;7.80;;
63320;SDS011;49449;48.800;9.534;2023-04-10T05:49:24;8.98;;;7.50;;
63320;SDS011;49449;48.800;9.534;2023-04-10T05:51:51;9.90;;;7.90;;
63320;SDS011;49449;48.800;9.534;2023-04-10T05:54:19;9.50;;;7.70;;
63320;SDS011;49449;48.800;9.534;2023-04-10T05:56:47;8.68;;;7.38;;
63320;SDS011;49449;48.800;9.534;2023-04-10T05:59:15;10.13;;;7.90;;
63320;SDS011;49449;48.800;9.534;2023-04-10T06:01:44;11.27;;;8.20;;
63320;SDS011;49449;48.800;9.534;2023-04-10T06:04:12;12.05;;;9.82;;
63320;SDS011;49449;48.800;9.534;2023-04-10T06:06:40;13.27;;;9.80;;
63320;SDS011;49449;48.800;9.534;2023-04-10T06:09:07;9.35;;;8.00;;
63320;SDS011;49449;48.800;9.534;2023-04-10T06:11:35;8.40;;;7.15;;
63320;SDS011;49449;48.800;9.534;2023-04-10T06:14:03;8.40;;;7.38;;
63320;SDS011;49449;48.800;9.534;2023-04-10T06:16:31;9.75;;;7.85;;
63320;SDS011;49449;48.800;9.534;2023-04-10T06:19:00;9.98;;;7.82;;
63320;SDS011;49449;48.800;9.534;2023-04-10T06:21:28;9.20;;;8.20;;
63320;SDS011;49449;48.800;9.534;2023-04-10T06:23:55;9.18;;;7.93;;
63320;SDS011;49449;48.800;9.534;2023-04-10T06:26:23;9.43;;;6.90;;
63320;SDS011;49449;48.800;9.534;2023-04-10T06:28:51;8.95;;;7.32;;
63320;SDS011;49449;48.800;9.534;2023-04-10T06:31:19;8.27;;;6.97;;
63320;SDS011;49449;48.800;9.534;2023-04-10T06:33:48;9.32;;;7.22;;
63320;SDS011;49449;48.800;9.534;2023-04-10T06:36:17;10.93;;;7.88;;
63320;SDS011;49449;48.800;9.534;2023-04-10T06:38:45;10.38;;;7.78;;
63320;SDS011;49449;48.800;9.534;2023-04-10T06:41:12;9.73;;;7.72;;
63320;SDS011;49449;48.800;9.534;2023-04-10T06:43:40;8.20;;;7.07;;
63320;SDS011;49449;48.800;9.534;2023-04-10T06:46:08;8.88;;;6.97;;
63320;SDS011;49449;48.800;9.534;2023-04-10T06:48:36;7.80;;;7.00;;
63320;SDS011;49449;48.800;9.534;2023-04-10T06:51:04;8.52;;;6.97;;
63320;SDS011;49449;48.800;9.534;2023-04-10T06:53:33;9.60;;;7.00;;
63320;SDS011;49449;48.800;9.534;2023-04-10T06:56:01;7.13;;;5.68;;
63320;SDS011;49449;48.800;9.534;2023-04-10T06:58:29;9.30;;;7.72;;
63320;SDS011;49449;48.800;9.534;2023-04-10T07:00:57;9.00;;;7.20;;
63320;SDS011;49449;48.800;9.534;2023-04-10T07:03:29;8.73;;;7.35;;
63320;SDS011;49449;48.800;9.534;2023-04-10T07:05:57;8.40;;;6.57;;
63320;SDS011;49449;48.800;9.534;2023-04-10T07:08:25;8.15;;;7.32;;
63320;SDS011;49449;48.800;9.534;2023-04-10T07:10:55;9.15;;;7.40;;
63320;SDS011;49449;48.800;9.534;2023-04-10T07:13:23;7.63;;;6.35;;
63320;SDS011;49449;48.800;9.534;2023-04-10T07:15:51;8.07;;;6.72;;
63320;SDS011;49449;48.800;9.534;2023-04-10T07:18:19;9.10;;;6.80;;
63320;SDS011;49449;48.800;9.534;2023-04-10T07:20:47;7.75;;;6.25;;
63320;SDS011;49449;48.800;9.534;2023-04-10T07:23:15;7.97;;;5.85;;
63320;SDS011;49449;48.800;9.534;2023-04-10T07:25:42;7.05;;;6.30;;
63320;SDS011;49449;48.800;9.534;2023-04-10T07:28:12;7.05;;;5.40;;
63320;SDS011;49449;48.800;9.534;2023-04-10T07:30:39;5.70;;;5.10;;
63320;SDS011;49449;48.800;9.534;2023-04-10T07:33:07;5.57;;;4.97;;
63320;SDS011;49449;48.800;9.534;2023-04-10T07:35:35;6.68;;;5.50;;
63320;SDS011;49449;48.800;9.534;2023-04-10T07:38:03;6.38;;;5.65;;
63320;SDS011;49449;48.800;9.534;2023-04-10T07:40:31;6.90;;;5.97;;
63320;SDS011;49449;48.800;9.534;2023-04-10T07:42:59;6.32;;;5.72;;
63320;SDS011;49449;48.800;9.534;2023-04-10T07:45:28;5.65;;;4.95;;
63320;SDS011;49449;48.800;9.534;2023-04-10T07:47:56;6.63;;;5.28;;
63320;SDS011;49449;48.800;9.534;2023-04-10T07:50:24;6.60;;;5.10;;
63320;SDS011;49449;48.800;9.534;2023-04-10T07:52:52;6.07;;;5.03;;
63320;SDS011;49449;48.800;9.534;2023-04-10T07:55:20;6.55;;;5.57;;
63320;SDS011;49449;48.800;9.534;2023-04-10T07:57:48;5.50;;;4.93;;
63320;SDS011;49449;48.800;9.534;2023-04-10T08:00:17;5.95;;;5.35;;
63320;SDS011;49449;48.800;9.534;2023-04-10T08:02:46;6.47;;;5.25;;
63320;SDS011;49449;48.800;9.534;2023-04-10T08:05:14;5.70;;;5.10;;
63320;SDS011;49449;48.800;9.534;2023-04-10T08:07:42;6.40;;;5.03;;
63320;SDS011;49449;48.800;9.534;2023-04-10T08:10:11;6.28;;;5.47;;
63320;SDS011;49449;48.800;9.534;2023-04-10T08:12:38;6.15;;;5.55;;
63320;SDS011;49449;48.800;9.534;2023-04-10T08:15:06;6.05;;;5.25;;
63320;SDS011;49449;48.800;9.534;2023-04-10T08:17:34;6.28;;;5.68;;
63320;SDS011;49449;48.800;9.534;2023-04-10T08:20:04;6.47;;;5.88;;
63320;SDS011;49449;48.800;9.534;2023-04-10T08:22:33;5.28;;;4.63;;
63320;SDS011;49449;48.800;9.534;2023-04-10T08:25:01;6.05;;;5.07;;
63320;SDS011;49449;48.800;9.534;2023-04-10T08:27:29;6.22;;;5.63;;
63320;SDS011;49449;48.800;9.534;2023-04-10T08:29:57;5.53;;;4.93;;
63320;SDS011;49449;48.800;9.534;2023-04-10T08:32:24;6.10;;;4.93;;
63320;SDS011;49449;48.800;9.534;2023-04-10T08:34:54;6.32;;;4.90;;
63320;SDS011;49449;48.800;9.534;2023-04-10T08:37:23;6.03;;;5.30;;
63320;SDS011;49449;48.800;9.534;2023-04-10T08:39:51;5.00;;;4.50;;
63320;SDS011;49449;48.800;9.534;2023-04-10T08:42:19;5.15;;;4.45;;
63320;SDS011;49449;48.800;9.534;2023-04-10T08:44:47;6.35;;;5.38;;
63320;SDS011;49449;48.800;9.534;2023-04-10T08:47:15;6.93;;;5.22;;
63320;SDS011;49449;48.800;9.534;2023-04-10T08:49:48;4.75;;;4.15;;
63320;SDS011;49449;48.800;9.534;2023-04-10T08:52:21;5.22;;;4.72;;
63320;SDS011;49449;48.800;9.534;2023-04-10T08:54:52;5.68;;;4.47;;
63320;SDS011;49449;48.800;9.534;2023-04-10T08:57:21;5.40;;;4.70;;
63320;SDS011;49449;48.800;9.534;2023-04-10T08:59:50;5.07;;;4.57;;
63320;SDS011;49449;48.800;9.534;2023-04-10T09:02:17;4.80;;;4.30;;
63320;SDS011;49449;48.800;9.534;2023-04-10T09:04:47;4.80;;;3.92;;
63320;SDS011;49449;48.800;9.534;2023-04-10T09:07:16;4.78;;;4.22;;
63320;SDS011;49449;48.800;9.534;2023-04-10T09:09:45;4.75;;;4.18;;
63320;SDS011;49449;48.800;9.534;2023-04-10T09:12:13;5.55;;;5.00;;
63320;SDS011;49449;48.800;9.534;2023-04-10T09:14:42;5.00;;;4.05;;
63320;SDS011;49449;48.800;9.534;2023-04-10T09:17:11;5.55;;;4.68;;
63320;SDS011;49449;48.800;9.534;2023-04-10T09:19:41;5.78;;;4.47;;
63320;SDS011;49449;48.800;9.534;2023-04-10T09:22:09;4.68;;;4.28;;
63320;SDS011;49449;48.800;9.534;2023-04-10T09:24:37;4.78;;;3.67;;
63320;SDS011;49449;48.800;9.534;2023-04-10T09:27:07;3.88;;;3.47;;
63320;SDS011;49449;48.800;9.534;2023-04-10T09:29:43;5.07;;;4.38;;
63320;SDS011;49449;48.800;9.534;2023-04-10T09:32:23;4.93;;;4.43;;
63320;SDS011;49449;48.800;9.534;2023-04-10T09:35:03;3.80;;;3.40;;
63320;SDS011;49449;48.800;9.534;2023-04-10T09:37:31;4.70;;;4.30;;
63320;SDS011;49449;48.800;9.534;2023-04-10T09:39:59;4.15;;;3.75;;
63320;SDS011;49449;48.800;9.534;2023-04-10T09:42:30;5.55;;;3.72;;
63320;SDS011;49449;48.800;9.534;2023-04-10T09:47:27;4.50;;;4.10;;
63320;SDS011;49449;48.800;9.534;2023-04-10T09:49:56;4.07;;;3.67;;
63320;SDS011;49449;48.800;9.534;2023-04-10T09:52:26;4.00;;;3.58;;
63320;SDS011;49449;48.800;9.534;2023-04-10T09:54:56;4.45;;;4.05;;
63320;SDS011;49449;48.800;9.534;2023-04-10T09:57:27;4.03;;;3.45;;
63320;SDS011;49449;48.800;9.534;2023-04-10T09:59:57;4.18;;;3.78;;
63320;SDS011;49449;48.800;9.534;2023-04-10T10:02:27;4.13;;;3.72;;
63320;SDS011;49449;48.800;9.534;2023-04-10T10:04:56;4.47;;;4.07;;
63320;SDS011;49449;48.800;9.534;2023-04-10T10:07:26;3.95;;;3.58;;
63320;SDS011;49449;48.800;9.534;2023-04-10T10:09:56;3.53;;;3.13;;
63320;SDS011;49449;48.800;9.534;2023-04-10T10:12:25;3.95;;;3.20;;
63320;SDS011;49449;48.800;9.534;2023-04-10T10:15:04;3.92;;;3.63;;
63320;SDS011;49449;48.800;9.534;2023-04-10T10:17:37;3.60;;;3.30;;
63320;SDS011;49449;48.800;9.534;2023-04-10T10:20:10;4.00;;;3.60;;
63320;SDS011;49449;48.800;9.534;2023-04-10T10:22:39;4.20;;;3.80;;
63320;SDS011;49449;48.800;9.534;2023-04-10T10:25:08;3.55;;;3.25;;
63320;SDS011;49449;48.800;9.534;2023-04-10T10:27:36;4.25;;;3.70;;
63320;SDS011;49449;48.800;9.534;2023-04-10T10:30:07;3.35;;;3.05;;
63320;SDS011;49449;48.800;9.534;2023-04-10T10:32:45;3.58;;;3.00;;
63320;SDS011;49449;48.800;9.534;2023-04-10T10:35:15;3.13;;;2.83;;
63320;SDS011;49449;48.800;9.534;2023-04-10T10:37:43;3.80;;;3.40;;
63320;SDS011;49449;48.800;9.534;2023-04-10T10:40:13;3.55;;;3.25;;
63320;SDS011;49449;48.800;9.534;2023-04-10T10:42:47;3.50;;;3.20;;
63320;SDS011;49449;48.800;9.534;2023-04-10T10:45:24;3.53;;;3.22;;
63320;SDS011;49449;48.800;9.534;2023-04-10T10:47:57;3.72;;;3.42;;
63320;SDS011;49449;48.800;9.534;2023-04-10T10:50:28;4.20;;;3.80;;
63320;SDS011;49449;48.800;9.534;2023-04-10T10:59:05;3.95;;;3.58;;
63320;SDS011;49449;48.800;9.534;2023-04-10T11:01:34;3.80;;;3.50;;
63320;SDS011;49449;48.800;9.534;2023-04-10T11:04:16;3.38;;;3.08;;
63320;SDS011;49449;48.800;9.534;2023-04-10T11:07:09;2.67;;;2.47;;
63320;SDS011;49449;48.800;9.534;2023-04-10T11:09:48;3.17;;;2.88;;
63320;SDS011;49449;48.800;9.534;2023-04-10T11:12:18;4.20;;;3.80;;
63320;SDS011;49449;48.800;9.534;2023-04-10T11:14:55;3.30;;;2.85;;
63320;SDS011;49449;48.800;9.534;2023-04-10T11:20:17;3.70;;;3.17;;
63320;SDS011;49449;48.800;9.534;2023-04-10T11:23:05;3.75;;;3.45;;
63320;SDS011;49449;48.800;9.534;2023-04-10T11:25:44;3.78;;;3.45;;
63320;SDS011;49449;48.800;9.534;2023-04-10T11:31:18;4.15;;;3.47;;
63320;SDS011;49449;48.800;9.534;2023-04-10T11:33:49;3.42;;;3.13;;
63320;SDS011;49449;48.800;9.534;2023-04-10T11:36:27;3.05;;;2.67;;
63320;SDS011;49449;48.800;9.534;2023-04-10T11:38:56;3.90;;;3.45;;
63320;SDS011;49449;48.800;9.534;2023-04-10T11:41:27;3.85;;;3.45;;
63320;SDS011;49449;48.800;9.534;2023-04-10T11:43:56;3.85;;;3.40;;
63320;SDS011;49449;48.800;9.534;2023-04-10T11:46:25;3.30;;;3.00;;
63320;SDS011;49449;48.800;9.534;2023-04-10T11:48:56;3.50;;;3.20;;
63320;SDS011;49449;48.800;9.534;2023-04-10T11:51:25;3.55;;;3.25;;
63320;SDS011;49449;48.800;9.534;2023-04-10T11:54:04;3.10;;;2.80;;
63320;SDS011;49449;48.800;9.534;2023-04-10T11:56:33;3.53;;;3.22;;
63320;SDS011;49449;48.800;9.534;2023-04-10T11:59:01;3.40;;;3.10;;
63320;SDS011;49449;48.800;9.534;2023-04-10T12:01:33;3.05;;;2.75;;
63320;SDS011;49449;48.800;9.534;2023-04-10T12:04:02;3.30;;;3.00;;
63320;SDS011;49449;48.800;9.534;2023-04-10T12:06:33;3.08;;;2.78;;
63320;SDS011;49449;48.800;9.534;2023-04-10T12:09:11;2.97;;;2.78;;
63320;SDS011;49449;48.800;9.534;2023-04-10T12:11:46;2.67;;;2.47;;
63320;SDS011;49449;48.800;9.534;2023-04-10T12:14:15;3.38;;;2.80;;
63320;SDS011;49449;48.800;9.534;2023-04-10T12:16:43;2.45;;;2.25;;
63320;SDS011;49449;48.800;9.534;2023-04-10T12:19:13;3.20;;;2.90;;
63320;SDS011;49449;48.800;9.534;2023-04-10T12:21:43;1.90;;;1.80;;
63320;SDS011;49449;48.800;9.534;2023-04-10T12:24:12;2.38;;;2.22;;
63320;SDS011;49449;48.800;9.534;2023-04-10T12:27:01;2.40;;;2.20;;
63320;SDS011;49449;48.800;9.534;2023-04-10T12:29:29;2.10;;;1.95;;
63320;SDS011;49449;48.800;9.534;2023-04-10T12:31:56;1.67;;;1.58;;
63320;SDS011;49449;48.800;9.534;2023-04-10T12:34:24;1.77;;;1.67;;
63320;SDS011;49449;48.800;9.534;2023-04-10T12:36:52;2.63;;;2.42;;
63320;SDS011;49449;48.800;9.534;2023-04-10T12:39:20;1.90;;;1.80;;
63320;SDS011;49449;48.800;9.534;2023-04-10T12:41:49;2.25;;;2.05;;
63320;SDS011;49449;48.800;9.534;2023-04-10T12:44:18;2.70;;;2.50;;
63320;SDS011;49449;48.800;9.534;2023-04-10T12:46:46;3.08;;;2.78;;
63320;SDS011;49449;48.800;9.534;2023-04-10T12:49:15;2.80;;;2.60;;
63320;SDS011;49449;48.800;9.534;2023-04-10T12:51:44;4.28;;;2.67;;
63320;SDS011;49449;48.800;9.534;2023-04-10T12:54:25;2.47;;;2.28;;
63320;SDS011;49449;48.800;9.534;2023-04-10T12:56:54;2.80;;;2.60;;
63320;SDS011;49449;48.800;9.534;2023-04-10T12:59:24;2.45;;;2.25;;
63320;SDS011;49449;48.800;9.534;2023-04-10T13:01:53;2.65;;;2.45;;
63320;SDS011;49449;48.800;9.534;2023-04-10T13:04:21;2.85;;;2.65;;
63320;SDS011;49449;48.800;9.534;2023-04-10T13:06:49;2.97;;;2.78;;
63320;SDS011;49449;48.800;9.534;2023-04-10T13:09:18;3.00;;;2.80;;
63320;SDS011;49449;48.800;9.534;2023-04-10T13:11:47;2.55;;;2.35;;
63320;SDS011;49449;48.800;9.534;2023-04-10T13:14:15;3.58;;;2.90;;
63320;SDS011;49449;48.800;9.534;2023-04-10T13:16:44;3.25;;;3.05;;
63320;SDS011;49449;48.800;9.534;2023-04-10T13:19:12;3.00;;;2.70;;
63320;SDS011;49449;48.800;9.534;2023-04-10T13:21:40;3.58;;;2.85;;
63320;SDS011;49449;48.800;9.534;2023-04-10T13:24:07;3.05;;;2.75;;
63320;SDS011;49449;48.800;9.534;2023-04-10T13:26:35;2.70;;;2.50;;
63320;SDS011;49449;48.800;9.534;2023-04-10T13:29:03;2.95;;;2.65;;
63320;SDS011;49449;48.800;9.534;2023-04-10T13:31:30;2.92;;;2.72;;
63320;SDS011;49449;48.800;9.534;2023-04-10T13:34:00;2.60;;;2.40;;
63320;SDS011;49449;48.800;9.534;2023-04-10T13:36:27;2.92;;;2.72;;
63320;SDS011;49449;48.800;9.534;2023-04-10T13:38:56;2.70;;;2.50;;
63320;SDS011;49449;48.800;9.534;2023-04-10T13:41:24;2.85;;;2.65;;
63320;SDS011;49449;48.800;9.534;2023-04-10T13:43:52;3.03;;;2.72;;
63320;SDS011;49449;48.800;9.534;2023-04-10T13:46:19;2.58;;;2.35;;
63320;SDS011;49449;48.800;9.534;2023-04-10T13:48:47;2.65;;;2.45;;
63320;SDS011;49449;48.800;9.534;2023-04-10T13:51:16;3.15;;;2.45;;
63320;SDS011;49449;48.800;9.534;2023-04-10T13:53:44;2.90;;;2.70;;
63320;SDS011;49449;48.800;9.534;2023-04-10T13:56:12;2.80;;;2.60;;
63320;SDS011;49449;48.800;9.534;2023-04-10T13:58:40;2.30;;;2.10;;
63320;SDS011;49449;48.800;9.534;2023-04-10T14:01:08;2.58;;;2.38;;
63320;SDS011;49449;48.800;9.534;2023-04-10T14:03:37;2.15;;;2.00;;
63320;SDS011;49449;48.800;9.534;2023-04-10T14:06:05;2.13;;;2.03;;
63320;SDS011;49449;48.800;9.534;2023-04-10T14:08:35;1.98;;;1.85;;
63320;SDS011;49449;48.800;9.534;2023-04-10T14:11:02;2.38;;;2.17;;
63320;SDS011;49449;48.800;9.534;2023-04-10T14:13:30;2.45;;;2.25;;
63320;SDS011;49449;48.800;9.534;2023-04-10T14:15:58;2.13;;;2.03;;
63320;SDS011;49449;48.800;9.534;2023-04-10T14:18:26;1.95;;;1.80;;
63320;SDS011;49449;48.800;9.534;2023-04-10T14:20:54;2.08;;;1.95;;
63320;SDS011;49449;48.800;9.534;2023-04-10T14:23:22;2.35;;;2.25;;
63320;SDS011;49449;48.800;9.534;2023-04-10T14:25:51;2.50;;;2.30;;
63320;SDS011;49449;48.800;9.534;2023-04-10T14:28:19;2.45;;;2.28;;
63320;SDS011;49449;48.800;9.534;2023-04-10T14:30:48;2.22;;;2.10;;
63320;SDS011;49449;48.800;9.534;2023-04-10T14:33:17;2.60;;;2.40;;
63320;SDS011;49449;48.800;9.534;2023-04-10T14:35:46;2.13;;;2.00;;
63320;SDS011;49449;48.800;9.534;2023-04-10T14:38:14;2.65;;;2.42;;
63320;SDS011;49449;48.800;9.534;2023-04-10T14:40:41;2.50;;;2.22;;
63320;SDS011;49449;48.800;9.534;2023-04-10T14:43:13;2.35;;;2.25;;
63320;SDS011;49449;48.800;9.534;2023-04-10T14:45:40;2.08;;;1.98;;
63320;SDS011;49449;48.800;9.534;2023-04-10T14:48:09;1.90;;;1.80;;
63320;SDS011;49449;48.800;9.534;2023-04-10T14:50:37;2.50;;;2.30;;
63320;SDS011;49449;48.800;9.534;2023-04-10T14:53:05;2.03;;;1.92;;
63320;SDS011;49449;48.800;9.534;2023-04-10T14:55:35;1.95;;;1.85;;
63320;SDS011;49449;48.800;9.534;2023-04-10T14:58:03;1.88;;;1.77;;
63320;SDS011;49449;48.800;9.534;2023-04-10T15:00:33;2.17;;;2.08;;
63320;SDS011;49449;48.800;9.534;2023-04-10T15:03:01;2.60;;;2.40;;
63320;SDS011;49449;48.800;9.534;2023-04-10T15:05:30;1.92;;;1.83;;
63320;SDS011;49449;48.800;9.534;2023-04-10T15:07:58;2.10;;;2.00;;
63320;SDS011;49449;48.800;9.534;2023-04-10T15:10:27;1.80;;;1.70;;
63320;SDS011;49449;48.800;9.534;2023-04-10T15:12:55;1.92;;;1.83;;
63320;SDS011;49449;48.800;9.534;2023-04-10T15:15:23;1.92;;;1.83;;